createdAt,value
2018-10-11T00:00:38.711Z,100417.31
2018-10-11T00:03:06.241Z,100416.59
2018-10-11T00:05:33.721Z,100421.48
2018-10-11T00:08:01.111Z,100413.56
2018-10-11T00:10:28.726Z,100414.77
2018-10-11T00:12:56.145Z,100416.33
2018-10-11T00:15:23.583Z,100421.72
2018-10-11T00:17:50.943Z,100419.33
2018-10-11T00:20:18.499Z,100416.77
2018-10-11T00:22:46.045Z,100420.09
2018-10-11T00:25:13.537Z,100425.73
2018-10-11T00:27:41.023Z,100421.14
2018-10-11T00:30:08.675Z,100420.59
2018-10-11T00:32:36.134Z,100425.82
2018-10-11T00:35:03.942Z,100424.92
2018-10-11T00:37:31.473Z,100428.82
2018-10-11T00:39:58.967Z,100421.95
2018-10-11T00:42:26.479Z,100428.70
2018-10-11T00:44:53.925Z,100419.01
2018-10-11T00:47:21.445Z,100419.31
2018-10-11T00:49:48.984Z,100410.60
2018-10-11T00:52:16.590Z,100399.45
2018-10-11T00:54:44.013Z,100400.23
2018-10-11T00:57:11.543Z,100405.39
2018-10-11T00:59:38.923Z,100399.33
2018-10-11T01:02:06.415Z,100391.25
2018-10-11T01:04:33.941Z,100394.80
2018-10-11T01:07:01.353Z,100392.83
2018-10-11T01:09:28.947Z,100384.89
2018-10-11T01:11:56.448Z,100383.14
2018-10-11T01:14:23.839Z,100373.61
2018-10-11T01:16:51.320Z,100375.87
2018-10-11T01:19:18.804Z,100377.48
2018-10-11T01:21:46.347Z,100381.23
2018-10-11T01:24:13.818Z,100385.20
2018-10-11T01:26:41.359Z,100383.69
2018-10-11T01:29:08.763Z,100375.41
2018-10-11T01:31:36.225Z,100385.92
2018-10-11T01:34:03.692Z,100375.92
2018-10-11T01:36:31.136Z,100375.51
2018-10-11T01:38:58.557Z,100375.59
2018-10-11T01:41:26.038Z,100379.61
2018-10-11T01:43:53.626Z,100373.84
2018-10-11T01:46:21.209Z,100369.11
2018-10-11T01:48:48.773Z,100363.05
2018-10-11T01:51:16.263Z,100356.18
2018-10-11T01:53:43.740Z,100362.66
2018-10-11T01:56:11.349Z,100358.48
2018-10-11T01:58:38.910Z,100349.48
2018-10-11T02:01:06.497Z,100354.17
2018-10-11T02:03:33.957Z,100348.38
2018-10-11T02:06:01.387Z,100339.80
2018-10-11T02:08:28.839Z,100344.33
2018-10-11T02:10:56.733Z,100347.61
2018-10-11T02:13:24.101Z,100343.42
2018-10-11T02:15:51.547Z,100341.63
2018-10-11T02:18:19.023Z,100333.01
2018-10-11T02:20:46.437Z,100330.75
2018-10-11T02:23:13.926Z,100325.76
2018-10-11T02:25:41.425Z,100324.56
2018-10-11T02:28:09.402Z,100328.06
2018-10-11T02:30:36.934Z,100333.48
2018-10-11T02:33:04.653Z,100339.06
2018-10-11T02:35:32.055Z,100346.28
2018-10-11T02:37:59.551Z,100344.53
2018-10-11T02:40:27.131Z,100340.35
2018-10-11T02:42:54.544Z,100344.39
2018-10-11T02:45:22.121Z,100340.69
2018-10-11T02:47:49.578Z,100337.27
2018-10-11T02:50:16.997Z,100333.59
2018-10-11T02:52:44.381Z,100328.30
2018-10-11T02:55:19.608Z,100324.97
2018-10-11T02:57:58.750Z,100333.16
2018-10-11T03:00:26.507Z,100336.22
2018-10-11T03:02:54.121Z,100339.16
2018-10-11T03:05:21.651Z,100346.87
2018-10-11T03:07:49.190Z,100339.70
2018-10-11T03:10:16.670Z,100337.31
2018-10-11T03:12:44.225Z,100344.77
2018-10-11T03:15:11.760Z,100349.70
2018-10-11T03:17:39.144Z,100350.34
2018-10-11T03:20:06.633Z,100343.09
2018-10-11T03:22:34.377Z,100339.35
2018-10-11T03:25:01.866Z,100338.84
2018-10-11T03:27:29.371Z,100343.03
2018-10-11T03:29:56.964Z,100344.00
2018-10-11T03:32:24.503Z,100346.65
2018-10-11T03:34:51.875Z,100352.06
2018-10-11T03:37:19.356Z,100351.84
2018-10-11T03:39:46.739Z,100350.13
2018-10-11T03:42:14.317Z,100345.72
2018-10-11T03:44:41.773Z,100343.14
2018-10-11T03:47:09.252Z,100340.75
2018-10-11T03:49:36.824Z,100335.97
2018-10-11T03:52:04.281Z,100335.25
2018-10-11T03:54:31.802Z,100335.87
2018-10-11T03:56:59.293Z,100337.83
2018-10-11T03:59:27.084Z,100339.97
2018-10-11T04:01:55.277Z,100343.11
2018-10-11T04:04:22.964Z,100347.20
2018-10-11T04:06:50.545Z,100349.02
2018-10-11T04:09:18.096Z,100350.94
2018-10-11T04:11:45.609Z,100355.76
2018-10-11T04:14:13.175Z,100360.19
2018-10-11T04:16:40.599Z,100355.66
2018-10-11T04:19:08.334Z,100358.74
2018-10-11T04:21:35.839Z,100360.34
2018-10-11T04:24:03.306Z,100361.22
2018-10-11T04:26:30.724Z,100353.58
2018-10-11T04:28:58.294Z,100348.30
2018-10-11T04:31:25.798Z,100350.44
2018-10-11T04:33:53.350Z,100359.61
2018-10-11T04:36:20.974Z,100366.40
2018-10-11T04:38:48.374Z,100357.53
2018-10-11T04:41:15.944Z,100352.40
2018-10-11T04:43:43.782Z,100353.62
2018-10-11T04:46:11.395Z,100358.67
2018-10-11T04:48:38.904Z,100366.88
2018-10-11T04:51:06.617Z,100364.70
2018-10-11T04:53:34.296Z,100361.27
2018-10-11T04:56:01.764Z,100367.57
2018-10-11T04:58:29.298Z,100372.74
2018-10-11T05:00:56.749Z,100372.05
2018-10-11T05:03:24.150Z,100373.87
2018-10-11T05:05:52.418Z,100362.81
2018-10-11T05:08:19.894Z,100370.26
2018-10-11T05:10:47.352Z,100381.05
2018-10-11T05:13:15.198Z,100381.16
2018-10-11T05:15:43.658Z,100382.95
2018-10-11T05:18:13.563Z,100390.17
2018-10-11T05:20:41.145Z,100387.80
2018-10-11T05:23:08.560Z,100399.58
2018-10-11T05:25:36.074Z,100401.13
2018-10-11T05:28:03.641Z,100396.72
2018-10-11T05:30:31.136Z,100386.43
2018-10-11T05:32:58.627Z,100393.84
2018-10-11T05:35:26.095Z,100389.89
2018-10-11T05:37:53.633Z,100387.13
2018-10-11T05:40:21.159Z,100390.70
2018-10-11T05:42:48.685Z,100388.41
2018-10-11T05:45:18.974Z,100389.95
2018-10-11T05:47:46.700Z,100395.57
2018-10-11T05:50:14.299Z,100396.15
2018-10-11T05:52:42.939Z,100389.78
2018-10-11T05:55:10.886Z,100401.14
2018-10-11T05:57:38.487Z,100393.33
2018-10-11T06:00:06.950Z,100390.23
2018-10-11T06:02:34.545Z,100396.20
2018-10-11T06:05:02.016Z,100406.42
2018-10-11T06:07:29.764Z,100414.92
2018-10-11T06:09:57.240Z,100420.31
2018-10-11T06:12:24.788Z,100418.28
2018-10-11T06:14:52.305Z,100415.53
2018-10-11T06:17:19.793Z,100399.88
2018-10-11T06:19:47.330Z,100402.06
2018-10-11T06:22:14.845Z,100408.78
2018-10-11T06:24:42.307Z,100411.05
2018-10-11T06:27:09.698Z,100399.89
2018-10-11T06:29:37.178Z,100407.86
2018-10-11T06:32:04.652Z,100408.66
2018-10-11T06:34:32.205Z,100413.86
2018-10-11T06:37:00.326Z,100416.99
2018-10-11T06:39:27.881Z,100425.59
2018-10-11T06:41:55.500Z,100428.23
2018-10-11T06:44:23.095Z,100442.80
2018-10-11T06:46:50.910Z,100442.20
2018-10-11T06:49:18.534Z,100441.67
2018-10-11T06:51:46.062Z,100450.66
2018-10-11T06:54:13.541Z,100450.91
2018-10-11T06:56:41.898Z,100443.38
2018-10-11T06:59:09.280Z,100442.88
2018-10-11T07:01:36.887Z,100443.89
2018-10-11T07:04:04.487Z,100439.97
2018-10-11T07:06:31.963Z,100449.53
2018-10-11T07:08:59.326Z,100458.45
2018-10-11T07:11:26.783Z,100465.28
2018-10-11T07:13:54.260Z,100475.71
2018-10-11T07:16:21.672Z,100487.72
2018-10-11T07:18:49.646Z,100486.80
2018-10-11T07:21:17.232Z,100498.69
2018-10-11T07:23:44.623Z,100511.58
2018-10-11T07:26:12.227Z,100515.25
2018-10-11T07:28:39.676Z,100515.12
2018-10-11T07:31:07.268Z,100522.81
2018-10-11T07:33:34.783Z,100521.84
2018-10-11T07:36:02.262Z,100514.11
2018-10-11T07:38:29.781Z,100522.00
2018-10-11T07:40:57.266Z,100533.83
2018-10-11T07:43:24.759Z,100539.54
2018-10-11T07:45:52.163Z,100528.64
2018-10-11T07:48:19.701Z,100536.77
2018-10-11T07:50:47.119Z,100524.11
2018-10-11T07:53:14.713Z,100526.84
2018-10-11T07:55:42.179Z,100519.28
2018-10-11T07:58:09.563Z,100518.91
2018-10-11T08:00:37.029Z,100512.88
2018-10-11T08:03:04.567Z,100518.14
2018-10-11T08:05:32.066Z,100528.17
2018-10-11T08:07:59.439Z,100535.82
2018-10-11T08:10:27.230Z,100528.81
2018-10-11T08:12:54.566Z,100531.27
2018-10-11T08:15:21.997Z,100536.47
2018-10-11T08:17:49.771Z,100534.81
2018-10-11T08:20:16.981Z,100531.33
2018-10-11T08:22:44.371Z,100529.89
2018-10-11T08:25:11.931Z,100536.11
2018-10-11T08:27:39.271Z,100539.06
2018-10-11T08:30:07.398Z,100539.55
2018-10-11T08:32:34.968Z,100541.66
2018-10-11T08:35:02.283Z,100531.09
2018-10-11T08:37:29.757Z,100532.13
2018-10-11T08:39:57.366Z,100523.06
2018-10-11T08:42:25.021Z,100529.02
2018-10-11T08:44:52.450Z,100529.55
2018-10-11T08:47:19.885Z,100526.92
2018-10-11T08:49:47.365Z,100527.34
2018-10-11T08:52:14.815Z,100530.58
2018-10-11T08:54:47.033Z,100531.27
2018-10-11T08:57:14.890Z,100534.42
2018-10-11T08:59:42.588Z,100525.13
2018-10-11T09:02:10.149Z,100530.30
2018-10-11T09:04:37.542Z,100529.68
2018-10-11T09:07:05.022Z,100521.75
2018-10-11T09:09:32.841Z,100522.75
2018-10-11T09:12:00.314Z,100522.66
2018-10-11T09:14:27.894Z,100521.66
2018-10-11T09:16:55.370Z,100518.81
2018-10-11T09:19:22.814Z,100520.20
2018-10-11T09:21:50.241Z,100521.14
2018-10-11T09:24:17.685Z,100525.86
2018-10-11T09:26:45.204Z,100529.94
2018-10-11T09:29:12.634Z,100528.98
2018-10-11T09:31:40.121Z,100536.80
2018-10-11T09:34:07.614Z,100529.42
2018-10-11T09:36:35.208Z,100531.84
2018-10-11T09:39:04.546Z,100533.94
2018-10-11T09:41:32.002Z,100525.59
2018-10-11T09:43:59.406Z,100523.48
2018-10-11T09:46:26.850Z,100520.36
2018-10-11T09:48:56.372Z,100516.22
2018-10-11T09:51:23.953Z,100528.95
2018-10-11T09:53:51.414Z,100527.39
2018-10-11T09:56:18.960Z,100523.76
2018-10-11T09:58:46.485Z,100522.54
2018-10-11T10:01:19.829Z,100518.50
2018-10-11T10:03:47.415Z,100525.95
2018-10-11T10:06:14.941Z,100519.62
2018-10-11T10:08:42.426Z,100515.27
2018-10-11T10:11:09.953Z,100513.32
2018-10-11T10:13:37.477Z,100513.89
2018-10-11T10:16:05.151Z,100515.51
2018-10-11T10:18:32.699Z,100511.98
2018-10-11T10:21:00.198Z,100511.53
2018-10-11T10:23:27.593Z,100514.20
2018-10-11T10:25:55.023Z,100517.14
2018-10-11T10:28:22.471Z,100514.46
2018-10-11T10:30:54.398Z,100516.30
2018-10-11T10:33:23.256Z,100514.95
2018-10-11T10:35:50.733Z,100508.35
2018-10-11T10:38:18.690Z,100504.70
2018-10-11T10:40:46.202Z,100509.89
2018-10-11T10:43:13.631Z,100500.55
2018-10-11T10:45:41.222Z,100501.53
2018-10-11T10:48:08.840Z,100487.50
2018-10-11T10:50:36.232Z,100485.44
2018-10-11T10:53:03.736Z,100479.77
2018-10-11T10:55:31.174Z,100474.77
2018-10-11T10:57:58.586Z,100485.72
2018-10-11T11:00:26.330Z,100485.05
2018-10-11T11:02:53.732Z,100474.13
2018-10-11T11:05:21.230Z,100477.88
2018-10-11T11:07:48.704Z,100471.55
2018-10-11T11:10:16.130Z,100474.22
2018-10-11T11:12:43.660Z,100474.80
2018-10-11T11:15:11.282Z,100474.22
2018-10-11T11:17:38.790Z,100478.38
2018-10-11T11:20:06.272Z,100470.05
2018-10-11T11:22:33.850Z,100478.23
2018-10-11T11:25:01.480Z,100473.38
2018-10-11T11:27:29.246Z,100474.42
2018-10-11T11:29:56.724Z,100477.07
2018-10-11T11:32:24.129Z,100473.36
2018-10-11T11:34:51.522Z,100471.11
2018-10-11T11:37:19.418Z,100467.11
2018-10-11T11:39:46.810Z,100464.11
2018-10-11T11:42:14.237Z,100464.76
2018-10-11T11:44:41.684Z,100467.14
2018-10-11T11:47:09.123Z,100461.64
2018-10-11T11:49:36.608Z,100458.12
2018-10-11T11:52:04.116Z,100454.41
2018-10-11T11:54:31.584Z,100456.54
2018-10-11T11:56:58.996Z,100451.40
2018-10-11T11:59:26.438Z,100453.31
2018-10-11T12:01:53.871Z,100454.91
2018-10-11T12:04:21.289Z,100450.41
2018-10-11T12:06:48.746Z,100448.92
2018-10-11T12:09:16.145Z,100451.20
2018-10-11T12:11:43.646Z,100449.61
2018-10-11T12:14:11.093Z,100453.66
2018-10-11T12:16:38.935Z,100456.91
2018-10-11T12:19:07.146Z,100455.47
2018-10-11T12:21:34.571Z,100449.66
2018-10-11T12:24:01.974Z,100450.31
2018-10-11T12:26:29.440Z,100451.28
2018-10-11T12:28:56.951Z,100450.50
2018-10-11T12:31:24.355Z,100447.31
2018-10-11T12:33:51.777Z,100437.73
2018-10-11T12:36:19.238Z,100438.49
2018-10-11T12:38:46.715Z,100441.77
2018-10-11T12:41:14.095Z,100441.18
2018-10-11T12:43:41.623Z,100446.80
2018-10-11T12:46:09.045Z,100445.13
2018-10-11T12:48:36.551Z,100439.56
2018-10-11T12:51:04.087Z,100443.33
2018-10-11T12:53:31.561Z,100441.67
2018-10-11T12:55:59.009Z,100435.70
2018-10-11T12:58:26.651Z,100438.55
2018-10-11T13:00:54.124Z,100449.06
2018-10-11T13:03:21.612Z,100449.73
2018-10-11T13:05:49.184Z,100450.23
2018-10-11T13:08:16.648Z,100457.84
2018-10-11T13:10:44.122Z,100454.45
2018-10-11T13:13:11.885Z,100458.96
2018-10-11T13:15:39.294Z,100461.27
2018-10-11T13:18:06.749Z,100458.53
2018-10-11T13:20:34.177Z,100462.25
2018-10-11T13:23:01.677Z,100461.92
2018-10-11T13:25:29.074Z,100459.71
2018-10-11T13:27:56.534Z,100465.14
2018-10-11T13:30:23.978Z,100466.21
2018-10-11T13:32:51.722Z,100465.16
2018-10-11T13:35:19.217Z,100464.72
2018-10-11T13:37:46.658Z,100470.02
2018-10-11T13:40:14.190Z,100473.39
2018-10-11T13:42:41.726Z,100463.16
2018-10-11T13:45:09.258Z,100467.63
2018-10-11T13:47:41.217Z,100465.42
2018-10-11T13:50:04.744Z,100470.70
2018-10-11T13:52:32.158Z,100459.59
2018-10-11T13:54:59.582Z,100463.90
2018-10-11T13:57:30.495Z,100468.01
2018-10-11T13:59:54.501Z,100466.63
2018-10-11T14:02:21.944Z,100461.55
2018-10-11T14:04:49.391Z,100453.66
2018-10-11T14:07:17.017Z,100452.52
2018-10-11T14:09:44.546Z,100456.56
2018-10-11T14:12:12.017Z,100457.67
2018-10-11T14:14:39.586Z,100457.67
2018-10-11T14:17:07.064Z,100456.02
2018-10-11T14:19:34.535Z,100460.70
2018-10-11T14:22:01.999Z,100449.52
2018-10-11T14:24:29.531Z,100454.20
2018-10-11T14:26:56.976Z,100454.91
2018-10-11T14:29:24.354Z,100452.58
2018-10-11T14:31:51.910Z,100449.94
2018-10-11T14:34:19.366Z,100448.55
2018-10-11T14:36:46.840Z,100450.69
2018-10-11T14:39:14.384Z,100446.25
2018-10-11T14:41:42.017Z,100448.69
2018-10-11T14:44:09.455Z,100441.94
2018-10-11T14:46:36.959Z,100448.30
2018-10-11T14:49:04.454Z,100450.51
2018-10-11T14:51:32.028Z,100443.66
2018-10-11T14:53:59.674Z,100444.72
2018-10-11T14:56:26.990Z,100447.10
2018-10-11T14:58:54.833Z,100438.11
2018-10-11T15:01:22.314Z,100436.33
2018-10-11T15:03:49.790Z,100441.30
2018-10-11T15:06:17.262Z,100442.25
2018-10-11T15:08:44.690Z,100431.78
2018-10-11T15:11:12.308Z,100430.23
2018-10-11T15:13:40.296Z,100431.99
2018-10-11T15:16:08.196Z,100433.41
2018-10-11T15:18:35.994Z,100439.52
2018-10-11T15:21:03.526Z,100437.63
2018-10-11T15:23:30.971Z,100442.70
2018-10-11T15:25:58.472Z,100442.22
2018-10-11T15:28:26.224Z,100448.77
2018-10-11T15:30:53.746Z,100447.89
2018-10-11T15:33:21.165Z,100437.00
2018-10-11T15:35:48.653Z,100430.64
2018-10-11T15:38:16.126Z,100418.56
2018-10-11T15:40:43.632Z,100425.22
2018-10-11T15:43:11.126Z,100425.07
2018-10-11T15:45:38.680Z,100431.03
2018-10-11T15:48:06.464Z,100435.03
2018-10-11T15:50:33.940Z,100429.78
2018-10-11T15:53:01.384Z,100434.41
2018-10-11T15:55:28.967Z,100447.34
2018-10-11T15:57:56.410Z,100458.23
2018-10-11T16:00:24.059Z,100456.27
2018-10-11T16:02:51.981Z,100449.69
2018-10-11T16:05:19.463Z,100446.03
2018-10-11T16:07:46.954Z,100457.59
2018-10-11T16:10:14.574Z,100457.58
2018-10-11T16:12:42.011Z,100462.11
2018-10-11T16:15:09.463Z,100458.17
2018-10-11T16:17:37.146Z,100456.38
2018-10-11T16:20:04.884Z,100459.84
2018-10-11T16:22:32.322Z,100455.30
2018-10-11T16:24:59.854Z,100464.42
2018-10-11T16:27:27.464Z,100461.61
2018-10-11T16:29:54.920Z,100456.57
2018-10-11T16:32:22.539Z,100457.45
2018-10-11T16:34:49.970Z,100463.41
2018-10-11T16:37:17.408Z,100465.09
2018-10-11T16:39:44.925Z,100465.42
2018-10-11T16:42:12.557Z,100470.05
2018-10-11T16:44:40.044Z,100462.64
2018-10-11T16:47:07.563Z,100463.86
2018-10-11T16:49:35.016Z,100468.25
2018-10-11T16:52:02.481Z,100466.27
2018-10-11T16:54:29.991Z,100467.73
2018-10-11T16:56:57.423Z,100470.76
2018-10-11T16:59:24.854Z,100480.21
2018-10-11T17:01:52.445Z,100483.50
2018-10-11T17:04:19.908Z,100477.73
2018-10-11T17:06:47.387Z,100483.09
2018-10-11T17:09:15.062Z,100485.59
2018-10-11T17:11:42.535Z,100481.14
2018-10-11T17:14:10.079Z,100473.14
2018-10-11T17:16:37.596Z,100469.02
2018-10-11T17:19:05.158Z,100477.83
2018-10-11T17:21:32.663Z,100486.27
2018-10-11T17:24:00.083Z,100494.84
2018-10-11T17:26:27.736Z,100504.47
2018-10-11T17:28:55.408Z,100511.75
2018-10-11T17:31:23.129Z,100512.00
2018-10-11T17:33:50.672Z,100517.09
2018-10-11T17:36:18.370Z,100525.02
2018-10-11T17:38:45.991Z,100523.70
2018-10-11T17:41:13.551Z,100532.42
2018-10-11T17:43:41.009Z,100534.99
2018-10-11T17:46:08.728Z,100535.55
2018-10-11T17:48:36.153Z,100533.41
2018-10-11T17:51:03.843Z,100544.48
2018-10-11T17:53:31.285Z,100546.39
2018-10-11T17:55:58.749Z,100542.75
2018-10-11T17:58:26.324Z,100541.42
2018-10-11T18:00:54.021Z,100541.92
2018-10-11T18:03:21.492Z,100540.46
2018-10-11T18:05:49.309Z,100550.01
2018-10-11T18:08:16.809Z,100557.86
2018-10-11T18:10:44.329Z,100555.25
2018-10-11T18:13:11.871Z,100552.45
2018-10-11T18:15:41.337Z,100560.28
2018-10-11T18:18:08.993Z,100562.63
2018-10-11T18:20:36.615Z,100553.47
2018-10-11T18:23:04.147Z,100555.79
2018-10-11T18:25:31.662Z,100551.81
2018-10-11T18:27:59.192Z,100551.48
2018-10-11T18:30:26.926Z,100548.80
2018-10-11T18:32:54.406Z,100553.65
2018-10-11T18:35:22.369Z,100554.84
2018-10-11T18:37:50.177Z,100553.98
2018-10-11T18:40:17.830Z,100551.52
2018-10-11T18:42:45.362Z,100551.83
2018-10-11T18:45:13.035Z,100550.50
2018-10-11T18:47:40.658Z,100550.66
2018-10-11T18:50:08.178Z,100546.98
2018-10-11T18:52:35.820Z,100562.64
2018-10-11T18:55:03.468Z,100562.98
2018-10-11T18:57:30.894Z,100571.33
2018-10-11T18:59:58.544Z,100562.17
2018-10-11T19:02:26.066Z,100563.64
2018-10-11T19:04:53.602Z,100562.16
2018-10-11T19:07:21.216Z,100566.67
2018-10-11T19:09:48.710Z,100565.67
2018-10-11T19:12:16.822Z,100569.34
2018-10-11T19:14:44.613Z,100566.17
2018-10-11T19:17:12.869Z,100565.00
2018-10-11T19:19:40.528Z,100572.34
2018-10-11T19:22:08.661Z,100570.31
2018-10-11T19:24:36.929Z,100568.34
2018-10-11T19:27:05.485Z,100570.00
2018-10-11T19:29:33.101Z,100570.33
2018-10-11T19:32:00.689Z,100568.66
2018-10-11T19:34:28.295Z,100565.81
2018-10-11T19:36:55.759Z,100572.34
2018-10-11T19:39:23.358Z,100566.66
2018-10-11T19:41:50.779Z,100568.16
2018-10-11T19:44:19.297Z,100569.30
2018-10-11T19:46:46.952Z,100566.96
2018-10-11T19:49:14.475Z,100570.28
2018-10-11T19:51:42.816Z,100567.78
2018-10-11T19:54:10.529Z,100564.27
2018-10-11T19:56:38.217Z,100568.61
2018-10-11T19:59:05.886Z,100573.25
2018-10-11T20:01:33.434Z,100576.91
2018-10-11T20:04:00.947Z,100573.41
2018-10-11T20:06:28.422Z,100570.57
2018-10-11T20:08:57.028Z,100573.84
2018-10-11T20:11:24.747Z,100576.16
2018-10-11T20:13:52.497Z,100570.44
2018-10-11T20:16:20.040Z,100571.08
2018-10-11T20:18:48.086Z,100574.70
2018-10-11T20:21:15.655Z,100570.64
2018-10-11T20:23:43.067Z,100567.24
2018-10-11T20:26:10.576Z,100566.67
2018-10-11T20:28:38.051Z,100572.76
2018-10-11T20:31:05.782Z,100582.59
2018-10-11T20:33:33.209Z,100592.80
2018-10-11T20:36:00.749Z,100602.64
2018-10-11T20:38:28.281Z,100604.20
2018-10-11T20:40:55.723Z,100607.96
2018-10-11T20:43:23.329Z,100612.21
2018-10-11T20:45:50.737Z,100614.45
2018-10-11T20:48:18.389Z,100615.53
2018-10-11T20:50:45.846Z,100618.72
2018-10-11T20:53:13.416Z,100623.98
2018-10-11T20:55:41.059Z,100617.32
2018-10-11T20:58:08.470Z,100618.52
2018-10-11T21:00:36.158Z,100618.26
2018-10-11T21:03:03.598Z,100620.45
2018-10-11T21:05:31.021Z,100618.33
2018-10-11T21:07:58.549Z,100619.72
2018-10-11T21:10:26.018Z,100628.10
2018-10-11T21:12:53.604Z,100631.98
2018-10-11T21:15:21.080Z,100636.46
2018-10-11T21:17:48.470Z,100631.28
2018-10-11T21:20:16.055Z,100636.14
2018-10-11T21:22:44.304Z,100636.55
2018-10-11T21:25:11.979Z,100633.42
2018-10-11T21:27:40.860Z,100628.11
2018-10-11T21:30:08.551Z,100633.28
2018-10-11T21:32:35.975Z,100633.95
2018-10-11T21:35:04.065Z,100634.80
2018-10-11T21:37:31.944Z,100634.28
2018-10-11T21:39:59.342Z,100632.23
2018-10-11T21:42:26.744Z,100635.33
2018-10-11T21:44:55.049Z,100632.47
2018-10-11T21:47:22.676Z,100638.78
2018-10-11T21:49:50.344Z,100637.64
2018-10-11T21:52:17.921Z,100637.70
2018-10-11T21:54:46.724Z,100635.55
2018-10-11T21:57:15.134Z,100636.55
2018-10-11T21:59:43.550Z,100635.12
2018-10-11T22:02:11.336Z,100628.56
2018-10-11T22:04:39.419Z,100627.17
2018-10-11T22:07:07.190Z,100633.23
2018-10-11T22:09:35.711Z,100635.30
2018-10-11T22:12:03.587Z,100648.68
2018-10-11T22:14:31.136Z,100649.73
2018-10-11T22:16:59.587Z,100648.45
2018-10-11T22:19:27.869Z,100642.41
2018-10-11T22:21:55.521Z,100642.16
2018-10-11T22:24:23.006Z,100642.23
2018-10-11T22:26:50.964Z,100651.40
2018-10-11T22:29:19.517Z,100645.55
2018-10-11T22:31:47.561Z,100645.21
2018-10-11T22:34:15.974Z,100637.59
2018-10-11T22:36:43.594Z,100637.59
2018-10-11T22:39:11.602Z,100636.27
2018-10-11T22:41:39.902Z,100634.20
2018-10-11T22:44:08.034Z,100637.09
2018-10-11T22:46:35.651Z,100642.59
2018-10-11T22:49:04.160Z,100640.09
2018-10-11T22:51:32.201Z,100635.41
2018-10-11T22:54:00.578Z,100635.72
2018-10-11T22:56:29.363Z,100648.89
2018-10-11T22:58:57.837Z,100650.24
2018-10-11T23:01:25.393Z,100661.25
2018-10-11T23:03:54.097Z,100661.52
2018-10-11T23:06:22.714Z,100665.84
2018-10-11T23:08:50.163Z,100663.91
2018-10-11T23:11:17.715Z,100671.45
2018-10-11T23:13:45.305Z,100683.81
2018-10-11T23:16:12.874Z,100685.45
2018-10-11T23:18:41.270Z,100686.36
2018-10-11T23:21:08.991Z,100691.23
2018-10-11T23:23:36.398Z,100687.73
2018-10-11T23:26:03.866Z,100682.85
2018-10-11T23:28:31.274Z,100690.55
2018-10-11T23:30:58.814Z,100695.16
2018-10-11T23:33:26.325Z,100700.45
2018-10-11T23:35:53.777Z,100709.30
2018-10-11T23:38:21.205Z,100707.94
2018-10-11T23:40:48.796Z,100703.88
2018-10-11T23:43:16.292Z,100695.44
2018-10-11T23:45:43.871Z,100702.95
2018-10-11T23:48:11.355Z,100711.94
2018-10-11T23:50:39.037Z,100721.84
2018-10-11T23:53:06.443Z,100735.72
2018-10-11T23:55:33.953Z,100738.05
2018-10-11T23:58:02.312Z,100743.69
